sensor_id;sensor_type;location;lat;lon;timestamp;P1;durP1;ratioP1;P2;durP2;ratioP2
41466;SDS011;27205;53.690;19.948;2022-11-15T00:04:48;25.50;;;23.50;;
41466;SDS011;27205;53.690;19.948;2022-11-15T00:09:51;27.60;;;25.60;;
41466;SDS011;27205;53.690;19.948;2022-11-15T00:14:54;31.10;;;28.80;;
41466;SDS011;27205;53.690;19.948;2022-11-15T00:19:57;30.30;;;28.00;;
41466;SDS011;27205;53.690;19.948;2022-11-15T00:25:01;25.70;;;23.80;;
41466;SDS011;27205;53.690;19.948;2022-11-15T00:30:04;28.50;;;26.30;;
41466;SDS011;27205;53.690;19.948;2022-11-15T00:35:09;30.20;;;27.80;;
41466;SDS011;27205;53.690;19.948;2022-11-15T00:40:13;30.00;;;27.60;;
41466;SDS011;27205;53.690;19.948;2022-11-15T00:50:20;29.20;;;27.00;;
41466;SDS011;27205;53.690;19.948;2022-11-15T00:55:23;29.10;;;26.90;;
41466;SDS011;27205;53.690;19.948;2022-11-15T01:00:27;26.70;;;24.50;;
41466;SDS011;27205;53.690;19.948;2022-11-15T01:05:30;30.50;;;28.00;;
41466;SDS011;27205;53.690;19.948;2022-11-15T01:10:34;28.90;;;26.70;;
41466;SDS011;27205;53.690;19.948;2022-11-15T01:15:40;28.20;;;26.00;;
41466;SDS011;27205;53.690;19.948;2022-11-15T01:20:44;29.60;;;27.40;;
41466;SDS011;27205;53.690;19.948;2022-11-15T01:25:47;30.90;;;28.60;;
41466;SDS011;27205;53.690;19.948;2022-11-15T01:30:50;30.30;;;27.90;;
41466;SDS011;27205;53.690;19.948;2022-11-15T01:35:54;31.10;;;28.70;;
41466;SDS011;27205;53.690;19.948;2022-11-15T01:40:58;28.00;;;25.80;;
41466;SDS011;27205;53.690;19.948;2022-11-15T01:46:06;30.50;;;28.20;;
41466;SDS011;27205;53.690;19.948;2022-11-15T01:51:27;28.10;;;26.10;;
41466;SDS011;27205;53.690;19.948;2022-11-15T01:56:36;31.20;;;28.90;;
41466;SDS011;27205;53.690;19.948;2022-11-15T02:01:46;29.90;;;27.50;;
41466;SDS011;27205;53.690;19.948;2022-11-15T02:06:50;30.20;;;28.00;;
41466;SDS011;27205;53.690;19.948;2022-11-15T02:11:53;28.70;;;26.50;;
41466;SDS011;27205;53.690;19.948;2022-11-15T02:17:06;28.50;;;26.50;;
41466;SDS011;27205;53.690;19.948;2022-11-15T02:33:41;32.90;;;30.50;;
41466;SDS011;27205;53.690;19.948;2022-11-15T02:38:53;34.80;;;32.20;;
41466;SDS011;27205;53.690;19.948;2022-11-15T02:44:04;38.00;;;35.10;;
41466;SDS011;27205;53.690;19.948;2022-11-15T02:49:15;32.70;;;30.20;;
41466;SDS011;27205;53.690;19.948;2022-11-15T02:54:24;33.30;;;30.80;;
41466;SDS011;27205;53.690;19.948;2022-11-15T03:10:34;37.60;;;34.70;;
41466;SDS011;27205;53.690;19.948;2022-11-15T03:15:41;34.60;;;32.00;;
41466;SDS011;27205;53.690;19.948;2022-11-15T03:20:53;36.70;;;33.90;;
41466;SDS011;27205;53.690;19.948;2022-11-15T03:25:58;37.90;;;35.10;;
41466;SDS011;27205;53.690;19.948;2022-11-15T03:31:03;37.00;;;34.20;;
41466;SDS011;27205;53.690;19.948;2022-11-15T03:36:28;35.30;;;32.60;;
41466;SDS011;27205;53.690;19.948;2022-11-15T03:41:43;32.00;;;29.60;;
41466;SDS011;27205;53.690;19.948;2022-11-15T03:47:09;35.70;;;33.00;;
41466;SDS011;27205;53.690;19.948;2022-11-15T03:52:19;33.60;;;31.10;;
41466;SDS011;27205;53.690;19.948;2022-11-15T03:57:24;34.40;;;31.90;;
41466;SDS011;27205;53.690;19.948;2022-11-15T04:02:27;32.00;;;29.60;;
41466;SDS011;27205;53.690;19.948;2022-11-15T04:07:31;33.00;;;30.50;;
41466;SDS011;27205;53.690;19.948;2022-11-15T04:12:36;36.10;;;33.40;;
41466;SDS011;27205;53.690;19.948;2022-11-15T04:17:47;34.00;;;31.60;;
41466;SDS011;27205;53.690;19.948;2022-11-15T04:22:52;34.50;;;31.80;;
41466;SDS011;27205;53.690;19.948;2022-11-15T04:28:16;32.70;;;30.20;;
41466;SDS011;27205;53.690;19.948;2022-11-15T04:33:19;26.20;;;24.20;;
41466;SDS011;27205;53.690;19.948;2022-11-15T04:38:22;24.40;;;22.60;;
41466;SDS011;27205;53.690;19.948;2022-11-15T04:43:26;28.80;;;26.70;;
41466;SDS011;27205;53.690;19.948;2022-11-15T04:48:29;24.00;;;22.30;;
41466;SDS011;27205;53.690;19.948;2022-11-15T04:53:33;23.70;;;21.90;;
41466;SDS011;27205;53.690;19.948;2022-11-15T04:58:37;24.70;;;22.90;;
41466;SDS011;27205;53.690;19.948;2022-11-15T05:03:40;24.80;;;22.90;;
41466;SDS011;27205;53.690;19.948;2022-11-15T05:09:03;22.70;;;21.00;;
41466;SDS011;27205;53.690;19.948;2022-11-15T05:14:07;24.00;;;22.20;;
41466;SDS011;27205;53.690;19.948;2022-11-15T05:19:10;20.20;;;18.70;;
41466;SDS011;27205;53.690;19.948;2022-11-15T05:24:14;23.70;;;21.90;;
41466;SDS011;27205;53.690;19.948;2022-11-15T05:29:17;24.20;;;22.40;;
41466;SDS011;27205;53.690;19.948;2022-11-15T05:34:20;22.10;;;20.40;;
41466;SDS011;27205;53.690;19.948;2022-11-15T05:39:25;21.50;;;19.90;;
41466;SDS011;27205;53.690;19.948;2022-11-15T05:44:28;23.40;;;21.60;;
41466;SDS011;27205;53.690;19.948;2022-11-15T05:49:34;24.40;;;22.50;;
41466;SDS011;27205;53.690;19.948;2022-11-15T05:54:41;25.40;;;23.40;;
41466;SDS011;27205;53.690;19.948;2022-11-15T05:59:46;23.00;;;21.30;;
41466;SDS011;27205;53.690;19.948;2022-11-15T06:04:49;21.40;;;19.80;;
41466;SDS011;27205;53.690;19.948;2022-11-15T06:09:53;27.30;;;25.30;;
41466;SDS011;27205;53.690;19.948;2022-11-15T06:14:56;20.00;;;18.60;;
41466;SDS011;27205;53.690;19.948;2022-11-15T06:19:59;22.80;;;21.00;;
41466;SDS011;27205;53.690;19.948;2022-11-15T06:25:03;22.50;;;20.70;;
41466;SDS011;27205;53.690;19.948;2022-11-15T06:35:11;16.50;;;15.30;;
41466;SDS011;27205;53.690;19.948;2022-11-15T06:40:14;20.20;;;18.60;;
41466;SDS011;27205;53.690;19.948;2022-11-15T06:45:18;20.50;;;19.00;;
41466;SDS011;27205;53.690;19.948;2022-11-15T06:50:21;18.40;;;17.10;;
41466;SDS011;27205;53.690;19.948;2022-11-15T06:55:25;19.60;;;18.10;;
41466;SDS011;27205;53.690;19.948;2022-11-15T07:00:28;25.50;;;23.50;;
41466;SDS011;27205;53.690;19.948;2022-11-15T07:05:31;21.90;;;20.10;;
41466;SDS011;27205;53.690;19.948;2022-11-15T07:10:35;21.50;;;19.70;;
41466;SDS011;27205;53.690;19.948;2022-11-15T07:15:38;20.50;;;18.70;;
41466;SDS011;27205;53.690;19.948;2022-11-15T07:20:41;17.80;;;16.40;;
41466;SDS011;27205;53.690;19.948;2022-11-15T07:25:45;22.50;;;20.80;;
41466;SDS011;27205;53.690;19.948;2022-11-15T07:30:48;17.40;;;16.10;;
41466;SDS011;27205;53.690;19.948;2022-11-15T07:35:52;23.20;;;21.50;;
41466;SDS011;27205;53.690;19.948;2022-11-15T07:40:59;18.90;;;17.50;;
41466;SDS011;27205;53.690;19.948;2022-11-15T07:46:04;25.80;;;23.80;;
41466;SDS011;27205;53.690;19.948;2022-11-15T07:51:12;23.40;;;21.50;;
41466;SDS011;27205;53.690;19.948;2022-11-15T07:56:17;31.30;;;28.50;;
41466;SDS011;27205;53.690;19.948;2022-11-15T08:01:21;27.00;;;24.90;;
41466;SDS011;27205;53.690;19.948;2022-11-15T08:06:27;27.00;;;24.90;;
41466;SDS011;27205;53.690;19.948;2022-11-15T08:11:31;29.20;;;26.90;;
41466;SDS011;27205;53.690;19.948;2022-11-15T08:16:34;30.00;;;27.60;;
41466;SDS011;27205;53.690;19.948;2022-11-15T08:21:37;21.20;;;19.50;;
41466;SDS011;27205;53.690;19.948;2022-11-15T08:26:40;23.70;;;21.80;;
41466;SDS011;27205;53.690;19.948;2022-11-15T08:31:44;18.60;;;17.00;;
41466;SDS011;27205;53.690;19.948;2022-11-15T08:36:47;22.70;;;20.90;;
41466;SDS011;27205;53.690;19.948;2022-11-15T08:41:50;29.20;;;27.00;;
41466;SDS011;27205;53.690;19.948;2022-11-15T08:46:54;23.20;;;21.40;;
41466;SDS011;27205;53.690;19.948;2022-11-15T08:51:57;25.30;;;23.20;;
41466;SDS011;27205;53.690;19.948;2022-11-15T08:57:00;25.50;;;23.40;;
41466;SDS011;27205;53.690;19.948;2022-11-15T09:02:04;28.90;;;26.40;;
41466;SDS011;27205;53.690;19.948;2022-11-15T09:07:09;25.50;;;23.30;;
41466;SDS011;27205;53.690;19.948;2022-11-15T09:12:13;23.30;;;21.30;;
41466;SDS011;27205;53.690;19.948;2022-11-15T09:17:16;25.90;;;23.60;;
41466;SDS011;27205;53.690;19.948;2022-11-15T09:22:26;30.00;;;27.30;;
41466;SDS011;27205;53.690;19.948;2022-11-15T09:27:30;27.60;;;25.10;;
41466;SDS011;27205;53.690;19.948;2022-11-15T09:32:33;25.30;;;23.10;;
41466;SDS011;27205;53.690;19.948;2022-11-15T09:37:43;24.30;;;22.30;;
41466;SDS011;27205;53.690;19.948;2022-11-15T09:42:52;23.00;;;21.00;;
41466;SDS011;27205;53.690;19.948;2022-11-15T09:53:11;26.80;;;24.50;;
41466;SDS011;27205;53.690;19.948;2022-11-15T10:04:16;22.50;;;20.70;;
41466;SDS011;27205;53.690;19.948;2022-11-15T10:14:29;26.00;;;23.70;;
41466;SDS011;27205;53.690;19.948;2022-11-15T10:30:38;31.80;;;28.90;;
41466;SDS011;27205;53.690;19.948;2022-11-15T10:35:43;25.30;;;23.20;;
41466;SDS011;27205;53.690;19.948;2022-11-15T10:40:47;26.10;;;23.90;;
41466;SDS011;27205;53.690;19.948;2022-11-15T10:45:50;25.00;;;22.80;;
41466;SDS011;27205;53.690;19.948;2022-11-15T10:50:55;21.10;;;19.40;;
41466;SDS011;27205;53.690;19.948;2022-11-15T10:56:00;20.50;;;18.80;;
41466;SDS011;27205;53.690;19.948;2022-11-15T11:01:15;21.50;;;19.70;;
41466;SDS011;27205;53.690;19.948;2022-11-15T11:06:21;24.10;;;21.90;;
41466;SDS011;27205;53.690;19.948;2022-11-15T11:11:24;24.30;;;22.20;;
41466;SDS011;27205;53.690;19.948;2022-11-15T11:16:48;24.10;;;22.10;;
41466;SDS011;27205;53.690;19.948;2022-11-15T11:32:38;22.80;;;20.80;;
41466;SDS011;27205;53.690;19.948;2022-11-15T11:43:08;19.60;;;18.00;;
41466;SDS011;27205;53.690;19.948;2022-11-15T11:53:55;22.70;;;20.70;;
41466;SDS011;27205;53.690;19.948;2022-11-15T11:59:10;26.40;;;24.20;;
41466;SDS011;27205;53.690;19.948;2022-11-15T12:04:24;22.60;;;20.70;;
41466;SDS011;27205;53.690;19.948;2022-11-15T12:09:38;22.00;;;20.10;;
41466;SDS011;27205;53.690;19.948;2022-11-15T12:30:37;17.50;;;16.10;;
41466;SDS011;27205;53.690;19.948;2022-11-15T12:35:57;20.00;;;18.10;;
41466;SDS011;27205;53.690;19.948;2022-11-15T12:52:13;18.70;;;17.10;;
41466;SDS011;27205;53.690;19.948;2022-11-15T13:02:15;17.30;;;15.80;;
41466;SDS011;27205;53.690;19.948;2022-11-15T13:33:18;11.60;;;10.70;;
41466;SDS011;27205;53.690;19.948;2022-11-15T13:38:38;12.20;;;11.30;;
41466;SDS011;27205;53.690;19.948;2022-11-15T13:43:43;18.30;;;16.80;;
41466;SDS011;27205;53.690;19.948;2022-11-15T13:48:48;14.80;;;13.60;;
41466;SDS011;27205;53.690;19.948;2022-11-15T13:54:00;15.10;;;13.80;;
41466;SDS011;27205;53.690;19.948;2022-11-15T13:59:32;13.70;;;12.60;;
41466;SDS011;27205;53.690;19.948;2022-11-15T14:04:38;13.40;;;12.30;;
41466;SDS011;27205;53.690;19.948;2022-11-15T14:09:48;16.60;;;15.30;;
41466;SDS011;27205;53.690;19.948;2022-11-15T14:14:52;18.10;;;16.50;;
41466;SDS011;27205;53.690;19.948;2022-11-15T14:19:57;17.70;;;16.20;;
41466;SDS011;27205;53.690;19.948;2022-11-15T14:30:18;12.90;;;11.90;;
41466;SDS011;27205;53.690;19.948;2022-11-15T14:35:22;13.00;;;12.00;;
41466;SDS011;27205;53.690;19.948;2022-11-15T14:40:26;13.80;;;12.70;;
41466;SDS011;27205;53.690;19.948;2022-11-15T14:45:29;12.00;;;11.10;;
41466;SDS011;27205;53.690;19.948;2022-11-15T14:50:33;15.50;;;14.20;;
41466;SDS011;27205;53.690;19.948;2022-11-15T15:00:40;17.40;;;16.00;;
41466;SDS011;27205;53.690;19.948;2022-11-15T15:10:48;17.00;;;15.60;;
41466;SDS011;27205;53.690;19.948;2022-11-15T15:15:52;14.30;;;13.20;;
41466;SDS011;27205;53.690;19.948;2022-11-15T15:20:56;16.00;;;14.80;;
41466;SDS011;27205;53.690;19.948;2022-11-15T15:26:10;17.70;;;16.20;;
41466;SDS011;27205;53.690;19.948;2022-11-15T15:31:13;19.30;;;17.80;;
41466;SDS011;27205;53.690;19.948;2022-11-15T15:36:17;17.90;;;16.60;;
41466;SDS011;27205;53.690;19.948;2022-11-15T15:41:22;17.70;;;16.40;;
41466;SDS011;27205;53.690;19.948;2022-11-15T15:46:26;18.40;;;16.90;;
41466;SDS011;27205;53.690;19.948;2022-11-15T15:51:30;18.90;;;17.40;;
41466;SDS011;27205;53.690;19.948;2022-11-15T15:56:34;17.30;;;15.90;;
41466;SDS011;27205;53.690;19.948;2022-11-15T16:01:37;16.90;;;15.60;;
41466;SDS011;27205;53.690;19.948;2022-11-15T16:06:40;22.30;;;20.50;;
41466;SDS011;27205;53.690;19.948;2022-11-15T16:11:47;20.60;;;19.00;;
41466;SDS011;27205;53.690;19.948;2022-11-15T16:16:51;29.40;;;27.20;;
41466;SDS011;27205;53.690;19.948;2022-11-15T16:21:54;18.30;;;16.80;;
41466;SDS011;27205;53.690;19.948;2022-11-15T16:26:57;17.40;;;16.00;;
41466;SDS011;27205;53.690;19.948;2022-11-15T16:32:01;15.20;;;14.00;;
41466;SDS011;27205;53.690;19.948;2022-11-15T16:37:04;14.80;;;13.60;;
41466;SDS011;27205;53.690;19.948;2022-11-15T16:42:08;16.80;;;15.40;;
41466;SDS011;27205;53.690;19.948;2022-11-15T16:47:16;20.20;;;18.70;;
41466;SDS011;27205;53.690;19.948;2022-11-15T16:52:21;19.50;;;17.80;;
41466;SDS011;27205;53.690;19.948;2022-11-15T16:57:24;18.90;;;17.40;;
41466;SDS011;27205;53.690;19.948;2022-11-15T17:02:28;17.30;;;15.90;;
41466;SDS011;27205;53.690;19.948;2022-11-15T17:07:31;15.90;;;14.60;;
41466;SDS011;27205;53.690;19.948;2022-11-15T17:12:35;14.50;;;13.40;;
41466;SDS011;27205;53.690;19.948;2022-11-15T17:17:39;15.70;;;14.50;;
41466;SDS011;27205;53.690;19.948;2022-11-15T17:22:42;22.70;;;20.80;;
41466;SDS011;27205;53.690;19.948;2022-11-15T17:27:47;26.00;;;23.80;;
41466;SDS011;27205;53.690;19.948;2022-11-15T17:32:50;19.90;;;18.30;;
41466;SDS011;27205;53.690;19.948;2022-11-15T17:37:53;18.00;;;16.50;;
41466;SDS011;27205;53.690;19.948;2022-11-15T17:42:57;20.30;;;18.50;;
41466;SDS011;27205;53.690;19.948;2022-11-15T17:48:01;21.20;;;19.50;;
41466;SDS011;27205;53.690;19.948;2022-11-15T17:53:04;22.40;;;20.40;;
41466;SDS011;27205;53.690;19.948;2022-11-15T17:58:10;16.90;;;15.50;;
41466;SDS011;27205;53.690;19.948;2022-11-15T18:03:13;18.10;;;16.60;;
41466;SDS011;27205;53.690;19.948;2022-11-15T18:08:16;21.10;;;19.20;;
41466;SDS011;27205;53.690;19.948;2022-11-15T18:13:20;18.70;;;17.10;;
41466;SDS011;27205;53.690;19.948;2022-11-15T18:18:23;24.50;;;22.30;;
41466;SDS011;27205;53.690;19.948;2022-11-15T18:23:27;23.10;;;21.20;;
41466;SDS011;27205;53.690;19.948;2022-11-15T18:28:31;26.50;;;24.20;;
41466;SDS011;27205;53.690;19.948;2022-11-15T18:33:37;20.70;;;19.00;;
41466;SDS011;27205;53.690;19.948;2022-11-15T18:43:45;24.20;;;22.00;;
41466;SDS011;27205;53.690;19.948;2022-11-15T18:48:52;26.00;;;23.80;;
41466;SDS011;27205;53.690;19.948;2022-11-15T18:59:00;23.20;;;21.10;;
41466;SDS011;27205;53.690;19.948;2022-11-15T19:04:11;23.50;;;21.50;;
41466;SDS011;27205;53.690;19.948;2022-11-15T19:09:17;21.40;;;19.50;;
41466;SDS011;27205;53.690;19.948;2022-11-15T19:14:21;28.80;;;26.20;;
41466;SDS011;27205;53.690;19.948;2022-11-15T19:19:27;28.20;;;25.70;;
41466;SDS011;27205;53.690;19.948;2022-11-15T19:24:31;29.00;;;26.40;;
41466;SDS011;27205;53.690;19.948;2022-11-15T19:29:34;25.90;;;23.60;;
41466;SDS011;27205;53.690;19.948;2022-11-15T19:34:37;26.80;;;24.40;;
41466;SDS011;27205;53.690;19.948;2022-11-15T19:39:43;23.70;;;21.70;;
41466;SDS011;27205;53.690;19.948;2022-11-15T19:44:46;24.50;;;22.30;;
41466;SDS011;27205;53.690;19.948;2022-11-15T19:49:49;22.00;;;20.10;;
41466;SDS011;27205;53.690;19.948;2022-11-15T19:54:53;27.60;;;25.10;;
41466;SDS011;27205;53.690;19.948;2022-11-15T19:59:56;22.40;;;20.50;;
41466;SDS011;27205;53.690;19.948;2022-11-15T20:05:06;23.90;;;21.80;;
41466;SDS011;27205;53.690;19.948;2022-11-15T20:10:21;20.10;;;18.20;;
41466;SDS011;27205;53.690;19.948;2022-11-15T20:15:24;16.00;;;14.60;;
41466;SDS011;27205;53.690;19.948;2022-11-15T20:20:27;21.50;;;19.70;;
41466;SDS011;27205;53.690;19.948;2022-11-15T20:25:31;22.60;;;20.60;;
41466;SDS011;27205;53.690;19.948;2022-11-15T20:30:35;22.30;;;20.40;;
41466;SDS011;27205;53.690;19.948;2022-11-15T20:35:39;22.40;;;20.50;;
41466;SDS011;27205;53.690;19.948;2022-11-15T20:40:44;20.60;;;18.90;;
41466;SDS011;27205;53.690;19.948;2022-11-15T20:45:48;22.80;;;20.80;;
41466;SDS011;27205;53.690;19.948;2022-11-15T20:50:58;20.40;;;18.60;;
41466;SDS011;27205;53.690;19.948;2022-11-15T20:56:08;19.70;;;18.00;;
41466;SDS011;27205;53.690;19.948;2022-11-15T21:01:17;20.00;;;18.20;;
41466;SDS011;27205;53.690;19.948;2022-11-15T21:06:26;24.50;;;22.40;;
41466;SDS011;27205;53.690;19.948;2022-11-15T21:11:29;22.50;;;20.60;;
41466;SDS011;27205;53.690;19.948;2022-11-15T21:16:51;22.80;;;20.80;;
41466;SDS011;27205;53.690;19.948;2022-11-15T21:21:55;22.00;;;20.00;;
41466;SDS011;27205;53.690;19.948;2022-11-15T21:26:58;20.70;;;19.10;;
41466;SDS011;27205;53.690;19.948;2022-11-15T21:32:02;21.30;;;19.50;;
41466;SDS011;27205;53.690;19.948;2022-11-15T21:37:09;17.80;;;16.30;;
41466;SDS011;27205;53.690;19.948;2022-11-15T21:42:12;19.20;;;17.60;;
41466;SDS011;27205;53.690;19.948;2022-11-15T21:47:16;17.90;;;16.40;;
41466;SDS011;27205;53.690;19.948;2022-11-15T21:52:19;18.80;;;17.20;;
41466;SDS011;27205;53.690;19.948;2022-11-15T21:57:23;19.40;;;17.80;;
41466;SDS011;27205;53.690;19.948;2022-11-15T22:02:26;19.30;;;17.80;;
41466;SDS011;27205;53.690;19.948;2022-11-15T22:07:30;16.40;;;15.00;;
41466;SDS011;27205;53.690;19.948;2022-11-15T22:12:33;18.60;;;17.10;;
41466;SDS011;27205;53.690;19.948;2022-11-15T22:17:36;15.20;;;14.00;;
41466;SDS011;27205;53.690;19.948;2022-11-15T22:22:58;19.60;;;17.90;;
41466;SDS011;27205;53.690;19.948;2022-11-15T22:28:02;14.90;;;13.70;;
41466;SDS011;27205;53.690;19.948;2022-11-15T22:33:05;22.10;;;20.10;;
41466;SDS011;27205;53.690;19.948;2022-11-15T22:38:09;16.50;;;15.10;;
41466;SDS011;27205;53.690;19.948;2022-11-15T22:43:13;21.80;;;19.90;;
41466;SDS011;27205;53.690;19.948;2022-11-15T22:48:18;20.40;;;18.70;;
41466;SDS011;27205;53.690;19.948;2022-11-15T22:53:23;18.60;;;17.00;;
41466;SDS011;27205;53.690;19.948;2022-11-15T23:08:35;22.60;;;20.50;;
41466;SDS011;27205;53.690;19.948;2022-11-15T23:13:39;21.10;;;19.30;;
41466;SDS011;27205;53.690;19.948;2022-11-15T23:18:43;23.80;;;21.70;;
41466;SDS011;27205;53.690;19.948;2022-11-15T23:23:46;21.90;;;19.90;;
41466;SDS011;27205;53.690;19.948;2022-11-15T23:28:50;22.10;;;20.10;;
41466;SDS011;27205;53.690;19.948;2022-11-15T23:33:53;22.90;;;20.80;;
41466;SDS011;27205;53.690;19.948;2022-11-15T23:38:59;21.10;;;19.20;;
41466;SDS011;27205;53.690;19.948;2022-11-15T23:49:07;22.30;;;20.20;;
41466;SDS011;27205;53.690;19.948;2022-11-15T23:54:11;23.00;;;20.90;;
41466;SDS011;27205;53.690;19.948;2022-11-15T23:59:15;16.40;;;14.90;;
